sensor_id;sensor_type;location;lat;lon;timestamp;pressure;altitude;pressure_sealevel;temperature;humidity
60832;BME280;46665;51.558;-0.448;2022-10-31T00:02:43;101159.53;;;10.16;100.00
60832;BME280;46665;51.558;-0.448;2022-10-31T00:05:27;101153.28;;;10.15;100.00
60832;BME280;46665;51.558;-0.448;2022-10-31T00:08:11;101162.25;;;10.16;100.00
60832;BME280;46665;51.558;-0.448;2022-10-31T00:10:55;101174.75;;;10.17;100.00
60832;BME280;46665;51.558;-0.448;2022-10-31T00:13:38;101163.88;;;10.17;100.00
60832;BME280;46665;51.558;-0.448;2022-10-31T00:16:23;101167.69;;;10.16;100.00
60832;BME280;46665;51.558;-0.448;2022-10-31T00:19:08;101166.31;;;10.13;100.00
60832;BME280;46665;51.558;-0.448;2022-10-31T00:21:52;101159.19;;;10.07;100.00
60832;BME280;46665;51.558;-0.448;2022-10-31T00:24:36;101164.38;;;10.09;100.00
60832;BME280;46665;51.558;-0.448;2022-10-31T00:27:20;101168.19;;;10.08;100.00
60832;BME280;46665;51.558;-0.448;2022-10-31T00:30:04;101156.47;;;10.07;100.00
60832;BME280;46665;51.558;-0.448;2022-10-31T00:32:49;101152.13;;;10.06;100.00
60832;BME280;46665;51.558;-0.448;2022-10-31T00:35:32;101158.09;;;10.03;100.00
60832;BME280;46665;51.558;-0.448;2022-10-31T00:38:16;101159.44;;;10.01;100.00
60832;BME280;46665;51.558;-0.448;2022-10-31T00:41:00;101155.63;;;9.96;100.00
60832;BME280;46665;51.558;-0.448;2022-10-31T00:43:44;101150.97;;;9.92;100.00
60832;BME280;46665;51.558;-0.448;2022-10-31T00:46:28;101146.88;;;9.89;100.00
60832;BME280;46665;51.558;-0.448;2022-10-31T00:49:12;101145.50;;;9.87;100.00
60832;BME280;46665;51.558;-0.448;2022-10-31T00:51:56;101146.06;;;9.89;100.00
60832;BME280;46665;51.558;-0.448;2022-10-31T00:54:40;101150.13;;;9.86;100.00
60832;BME280;46665;51.558;-0.448;2022-10-31T00:57:24;101161.78;;;9.82;100.00
60832;BME280;46665;51.558;-0.448;2022-10-31T01:00:08;101152.81;;;9.81;100.00
60832;BME280;46665;51.558;-0.448;2022-10-31T01:02:52;101152.00;;;9.81;100.00
60832;BME280;46665;51.558;-0.448;2022-10-31T01:05:36;101140.03;;;9.82;100.00
60832;BME280;46665;51.558;-0.448;2022-10-31T01:08:20;101150.91;;;9.82;100.00
60832;BME280;46665;51.558;-0.448;2022-10-31T01:11:14;101146.28;;;9.82;100.00
60832;BME280;46665;51.558;-0.448;2022-10-31T01:13:58;101146.59;;;9.86;100.00
60832;BME280;46665;51.558;-0.448;2022-10-31T01:16:42;101143.59;;;9.87;100.00
60832;BME280;46665;51.558;-0.448;2022-10-31T01:19:26;101143.34;;;9.89;100.00
60832;BME280;46665;51.558;-0.448;2022-10-31T01:22:10;101151.25;;;9.90;100.00
60832;BME280;46665;51.558;-0.448;2022-10-31T01:24:55;101145.53;;;9.92;100.00
60832;BME280;46665;51.558;-0.448;2022-10-31T01:27:39;101148.28;;;10.02;100.00
60832;BME280;46665;51.558;-0.448;2022-10-31T01:30:23;101144.81;;;10.12;100.00
60832;BME280;46665;51.558;-0.448;2022-10-31T01:33:07;101147.38;;;10.29;100.00
60832;BME280;46665;51.558;-0.448;2022-10-31T01:35:50;101133.22;;;10.37;100.00
60832;BME280;46665;51.558;-0.448;2022-10-31T01:38:34;101135.97;;;10.47;100.00
60832;BME280;46665;51.558;-0.448;2022-10-31T01:41:21;101139.81;;;10.56;100.00
60832;BME280;46665;51.558;-0.448;2022-10-31T01:47:14;101146.38;;;10.71;100.00
60832;BME280;46665;51.558;-0.448;2022-10-31T01:50:03;101135.78;;;10.74;100.00
60832;BME280;46665;51.558;-0.448;2022-10-31T01:52:49;101124.59;;;10.81;100.00
60832;BME280;46665;51.558;-0.448;2022-10-31T01:55:40;101129.25;;;10.85;100.00
60832;BME280;46665;51.558;-0.448;2022-10-31T01:58:27;101133.06;;;10.90;100.00
60832;BME280;46665;51.558;-0.448;2022-10-31T02:01:14;101135.22;;;10.88;100.00
60832;BME280;46665;51.558;-0.448;2022-10-31T02:03:58;101134.97;;;10.89;100.00
60832;BME280;46665;51.558;-0.448;2022-10-31T02:07:07;101132.53;;;10.93;100.00
60832;BME280;46665;51.558;-0.448;2022-10-31T02:09:54;101133.31;;;10.93;100.00
60832;BME280;46665;51.558;-0.448;2022-10-31T02:12:40;101128.69;;;10.94;100.00
60832;BME280;46665;51.558;-0.448;2022-10-31T02:15:24;101131.16;;;10.95;100.00
60832;BME280;46665;51.558;-0.448;2022-10-31T02:18:08;101126.25;;;10.92;100.00
60832;BME280;46665;51.558;-0.448;2022-10-31T02:27:42;101121.06;;;10.96;100.00
60832;BME280;46665;51.558;-0.448;2022-10-31T02:30:23;101119.72;;;10.93;100.00
60832;BME280;46665;51.558;-0.448;2022-10-31T02:33:26;101122.19;;;10.90;100.00
60832;BME280;46665;51.558;-0.448;2022-10-31T02:36:23;101127.63;;;10.90;100.00
60832;BME280;46665;51.558;-0.448;2022-10-31T02:42:42;101113.72;;;10.86;100.00
60832;BME280;46665;51.558;-0.448;2022-10-31T02:48:45;101108.00;;;10.82;100.00
60832;BME280;46665;51.558;-0.448;2022-10-31T02:51:32;101103.38;;;10.83;100.00
60832;BME280;46665;51.558;-0.448;2022-10-31T02:54:22;101103.94;;;10.85;100.00
60832;BME280;46665;51.558;-0.448;2022-10-31T02:57:07;101092.22;;;10.84;100.00
60832;BME280;46665;51.558;-0.448;2022-10-31T03:00:04;101098.22;;;10.81;100.00
60832;BME280;46665;51.558;-0.448;2022-10-31T03:11:58;101101.19;;;10.75;100.00
60832;BME280;46665;51.558;-0.448;2022-10-31T03:15:20;101100.66;;;10.73;100.00
60832;BME280;46665;51.558;-0.448;2022-10-31T03:18:09;101100.38;;;10.69;100.00
60832;BME280;46665;51.558;-0.448;2022-10-31T03:23:46;101092.47;;;10.57;100.00
60832;BME280;46665;51.558;-0.448;2022-10-31T03:26:31;101092.47;;;10.57;100.00
60832;BME280;46665;51.558;-0.448;2022-10-31T03:29:18;101100.06;;;10.50;100.00
60832;BME280;46665;51.558;-0.448;2022-10-31T03:32:07;101084.28;;;10.42;100.00
60832;BME280;46665;51.558;-0.448;2022-10-31T03:34:55;101087.00;;;10.37;100.00
60832;BME280;46665;51.558;-0.448;2022-10-31T03:37:41;101077.47;;;10.34;100.00
60832;BME280;46665;51.558;-0.448;2022-10-31T03:40:27;101088.59;;;10.38;100.00
60832;BME280;46665;51.558;-0.448;2022-10-31T03:43:16;101102.78;;;10.40;100.00
60832;BME280;46665;51.558;-0.448;2022-10-31T03:46:02;101086.44;;;10.35;100.00
60832;BME280;46665;51.558;-0.448;2022-10-31T03:48:47;101089.97;;;10.35;100.00
60832;BME280;46665;51.558;-0.448;2022-10-31T03:51:48;101088.91;;;10.36;100.00
60832;BME280;46665;51.558;-0.448;2022-10-31T03:54:42;101086.41;;;10.30;100.00
60832;BME280;46665;51.558;-0.448;2022-10-31T03:57:36;101089.66;;;10.27;100.00
60832;BME280;46665;51.558;-0.448;2022-10-31T04:00:23;101084.19;;;10.22;100.00
60832;BME280;46665;51.558;-0.448;2022-10-31T04:03:14;101093.72;;;10.24;100.00
60832;BME280;46665;51.558;-0.448;2022-10-31T04:06:03;101090.19;;;10.18;100.00
60832;BME280;46665;51.558;-0.448;2022-10-31T04:08:54;101086.34;;;10.14;100.00
60832;BME280;46665;51.558;-0.448;2022-10-31T04:11:44;101087.72;;;10.17;100.00
60832;BME280;46665;51.558;-0.448;2022-10-31T04:14:31;101082.28;;;10.22;100.00
60832;BME280;46665;51.558;-0.448;2022-10-31T04:17:17;101080.97;;;10.30;100.00
60832;BME280;46665;51.558;-0.448;2022-10-31T04:20:02;101071.47;;;10.37;100.00
60832;BME280;46665;51.558;-0.448;2022-10-31T04:22:47;101073.94;;;10.44;100.00
60832;BME280;46665;51.558;-0.448;2022-10-31T04:25:31;101066.06;;;10.48;100.00
60832;BME280;46665;51.558;-0.448;2022-10-31T04:28:15;101069.31;;;10.50;100.00
60832;BME280;46665;51.558;-0.448;2022-10-31T04:30:59;101067.69;;;10.49;100.00
60832;BME280;46665;51.558;-0.448;2022-10-31T04:33:43;101067.16;;;10.47;100.00
60832;BME280;46665;51.558;-0.448;2022-10-31T04:36:27;101064.69;;;10.45;100.00
60832;BME280;46665;51.558;-0.448;2022-10-31T04:39:11;101069.56;;;10.43;100.00
60832;BME280;46665;51.558;-0.448;2022-10-31T04:41:56;101055.97;;;10.38;100.00
60832;BME280;46665;51.558;-0.448;2022-10-31T04:44:40;101062.50;;;10.37;100.00
60832;BME280;46665;51.558;-0.448;2022-10-31T04:47:23;101064.69;;;10.40;100.00
60832;BME280;46665;51.558;-0.448;2022-10-31T04:50:08;101060.59;;;10.43;100.00
60832;BME280;46665;51.558;-0.448;2022-10-31T04:52:52;101054.09;;;10.44;100.00
60832;BME280;46665;51.558;-0.448;2022-10-31T04:55:36;101059.81;;;10.47;100.00
60832;BME280;46665;51.558;-0.448;2022-10-31T04:58:20;101059.25;;;10.50;100.00
60832;BME280;46665;51.558;-0.448;2022-10-31T05:01:04;101053.00;;;10.50;100.00
60832;BME280;46665;51.558;-0.448;2022-10-31T05:03:48;101057.63;;;10.49;100.00
60832;BME280;46665;51.558;-0.448;2022-10-31T05:06:32;101055.16;;;10.48;100.00
60832;BME280;46665;51.558;-0.448;2022-10-31T05:09:16;101061.97;;;10.45;100.00
60832;BME280;46665;51.558;-0.448;2022-10-31T05:12:00;101060.34;;;10.39;100.00
60832;BME280;46665;51.558;-0.448;2022-10-31T05:14:44;101058.16;;;10.36;100.00
60832;BME280;46665;51.558;-0.448;2022-10-31T05:17:28;101057.31;;;10.30;100.00
60832;BME280;46665;51.558;-0.448;2022-10-31T05:20:13;101056.22;;;10.26;100.00
60832;BME280;46665;51.558;-0.448;2022-10-31T05:22:58;101049.38;;;10.18;100.00
60832;BME280;46665;51.558;-0.448;2022-10-31T05:25:42;101053.47;;;10.16;100.00
60832;BME280;46665;51.558;-0.448;2022-10-31T05:28:26;101061.59;;;10.11;100.00
60832;BME280;46665;51.558;-0.448;2022-10-31T05:31:10;101054.25;;;10.06;100.00
60832;BME280;46665;51.558;-0.448;2022-10-31T05:33:54;101054.78;;;10.03;100.00
60832;BME280;46665;51.558;-0.448;2022-10-31T05:36:37;101045.53;;;9.99;100.00
60832;BME280;46665;51.558;-0.448;2022-10-31T05:39:22;101044.97;;;9.97;100.00
60832;BME280;46665;51.558;-0.448;2022-10-31T05:42:05;101041.69;;;9.95;100.00
60832;BME280;46665;51.558;-0.448;2022-10-31T05:44:49;101034.63;;;9.94;100.00
60832;BME280;46665;51.558;-0.448;2022-10-31T05:47:33;101041.41;;;9.91;100.00
60832;BME280;46665;51.558;-0.448;2022-10-31T05:50:17;101027.81;;;9.91;100.00
60832;BME280;46665;51.558;-0.448;2022-10-31T05:53:04;101031.09;;;9.88;100.00
60832;BME280;46665;51.558;-0.448;2022-10-31T05:55:48;101025.38;;;9.90;100.00
60832;BME280;46665;51.558;-0.448;2022-10-31T05:58:32;101023.19;;;9.87;100.00
60832;BME280;46665;51.558;-0.448;2022-10-31T06:01:16;101029.97;;;9.84;100.00
60832;BME280;46665;51.558;-0.448;2022-10-31T06:04:00;101024.25;;;9.81;100.00
60832;BME280;46665;51.558;-0.448;2022-10-31T06:06:44;101033.78;;;9.78;100.00
60832;BME280;46665;51.558;-0.448;2022-10-31T06:09:28;101014.72;;;9.73;100.00
60832;BME280;46665;51.558;-0.448;2022-10-31T06:12:12;101017.13;;;9.69;100.00
60832;BME280;46665;51.558;-0.448;2022-10-31T06:14:56;101005.44;;;9.64;100.00
60832;BME280;46665;51.558;-0.448;2022-10-31T06:17:40;101011.97;;;9.63;100.00
60832;BME280;46665;51.558;-0.448;2022-10-31T06:20:24;101010.03;;;9.58;100.00
60832;BME280;46665;51.558;-0.448;2022-10-31T06:23:08;101006.50;;;9.52;100.00
60832;BME280;46665;51.558;-0.448;2022-10-31T06:25:52;101010.56;;;9.50;100.00
60832;BME280;46665;51.558;-0.448;2022-10-31T06:28:36;101011.34;;;9.45;100.00
60832;BME280;46665;51.558;-0.448;2022-10-31T06:31:20;101009.41;;;9.41;100.00
60832;BME280;46665;51.558;-0.448;2022-10-31T06:34:04;101009.41;;;9.36;100.00
60832;BME280;46665;51.558;-0.448;2022-10-31T06:36:48;101007.22;;;9.32;100.00
60832;BME280;46665;51.558;-0.448;2022-10-31T06:39:33;101008.56;;;9.30;100.00
60832;BME280;46665;51.558;-0.448;2022-10-31T06:42:17;101008.53;;;9.25;100.00
60832;BME280;46665;51.558;-0.448;2022-10-31T06:45:01;100995.19;;;9.18;100.00
60832;BME280;46665;51.558;-0.448;2022-10-31T06:47:50;100998.97;;;9.17;100.00
60832;BME280;46665;51.558;-0.448;2022-10-31T06:50:35;101004.09;;;9.14;100.00
60832;BME280;46665;51.558;-0.448;2022-10-31T06:53:18;101002.47;;;9.13;100.00
60832;BME280;46665;51.558;-0.448;2022-10-31T06:56:03;100994.06;;;9.09;100.00
60832;BME280;46665;51.558;-0.448;2022-10-31T06:58:47;100995.09;;;9.03;100.00
60832;BME280;46665;51.558;-0.448;2022-10-31T07:01:31;100986.13;;;9.02;100.00
60832;BME280;46665;51.558;-0.448;2022-10-31T07:04:15;100990.19;;;9.00;100.00
60832;BME280;46665;51.558;-0.448;2022-10-31T07:06:59;100989.63;;;8.98;100.00
60832;BME280;46665;51.558;-0.448;2022-10-31T07:09:43;100990.19;;;9.00;100.00
60832;BME280;46665;51.558;-0.448;2022-10-31T07:12:27;100989.91;;;9.01;100.00
60832;BME280;46665;51.558;-0.448;2022-10-31T07:15:11;100976.34;;;9.01;100.00
60832;BME280;46665;51.558;-0.448;2022-10-31T07:17:59;100998.38;;;9.05;100.00
60832;BME280;46665;51.558;-0.448;2022-10-31T07:20:43;100988.88;;;9.07;100.00
60832;BME280;46665;51.558;-0.448;2022-10-31T07:23:27;100994.88;;;9.09;100.00
60832;BME280;46665;51.558;-0.448;2022-10-31T07:26:11;100983.72;;;9.11;100.00
60832;BME280;46665;51.558;-0.448;2022-10-31T07:28:55;100993.53;;;9.12;100.00
60832;BME280;46665;51.558;-0.448;2022-10-31T07:31:39;100984.84;;;9.15;100.00
60832;BME280;46665;51.558;-0.448;2022-10-31T07:34:23;100989.19;;;9.16;100.00
60832;BME280;46665;51.558;-0.448;2022-10-31T07:37:07;100986.50;;;9.21;100.00
60832;BME280;46665;51.558;-0.448;2022-10-31T07:39:51;100982.19;;;9.25;100.00
60832;BME280;46665;51.558;-0.448;2022-10-31T07:42:36;100978.69;;;9.30;100.00
60832;BME280;46665;51.558;-0.448;2022-10-31T07:45:21;100973.53;;;9.33;100.00
60832;BME280;46665;51.558;-0.448;2022-10-31T07:48:05;100974.13;;;9.41;100.00
60832;BME280;46665;51.558;-0.448;2022-10-31T07:50:49;100982.84;;;9.48;100.00
60832;BME280;46665;51.558;-0.448;2022-10-31T07:53:33;100980.94;;;9.53;100.00
60832;BME280;46665;51.558;-0.448;2022-10-31T07:56:17;100982.06;;;9.58;100.00
60832;BME280;46665;51.558;-0.448;2022-10-31T07:59:00;100974.75;;;9.63;100.00
60832;BME280;46665;51.558;-0.448;2022-10-31T08:01:44;100978.81;;;9.66;100.00
60832;BME280;46665;51.558;-0.448;2022-10-31T08:04:28;100979.09;;;9.69;100.00
60832;BME280;46665;51.558;-0.448;2022-10-31T08:07:12;100975.03;;;9.72;100.00
60832;BME280;46665;51.558;-0.448;2022-10-31T08:09:56;100975.59;;;9.79;100.00
60832;BME280;46665;51.558;-0.448;2022-10-31T08:12:40;100968.00;;;9.86;100.00
60832;BME280;46665;51.558;-0.448;2022-10-31T08:15:25;100972.91;;;9.89;100.00
60832;BME280;46665;51.558;-0.448;2022-10-31T08:18:12;100971.84;;;9.95;100.00
60832;BME280;46665;51.558;-0.448;2022-10-31T08:20:56;100976.50;;;10.10;100.00
60832;BME280;46665;51.558;-0.448;2022-10-31T08:23:40;100972.44;;;10.23;100.00
60832;BME280;46665;51.558;-0.448;2022-10-31T08:26:24;100961.31;;;10.30;100.00
60832;BME280;46665;51.558;-0.448;2022-10-31T08:29:08;100978.19;;;10.42;100.00
60832;BME280;46665;51.558;-0.448;2022-10-31T08:31:52;100976.25;;;10.53;100.00
60832;BME280;46665;51.558;-0.448;2022-10-31T08:34:36;100964.84;;;10.66;100.00
60832;BME280;46665;51.558;-0.448;2022-10-31T08:37:20;100961.00;;;10.77;100.00
60832;BME280;46665;51.558;-0.448;2022-10-31T08:40:05;100956.09;;;10.90;100.00
60832;BME280;46665;51.558;-0.448;2022-10-31T08:45:47;100958.78;;;11.10;100.00
60832;BME280;46665;51.558;-0.448;2022-10-31T08:48:43;100953.56;;;11.19;100.00
60832;BME280;46665;51.558;-0.448;2022-10-31T08:51:27;100963.91;;;11.27;100.00
60832;BME280;46665;51.558;-0.448;2022-10-31T08:54:11;100960.31;;;11.32;100.00
60832;BME280;46665;51.558;-0.448;2022-10-31T08:56:55;100954.03;;;11.36;100.00
60832;BME280;46665;51.558;-0.448;2022-10-31T08:59:39;100956.44;;;11.48;100.00
60832;BME280;46665;51.558;-0.448;2022-10-31T09:02:24;100950.41;;;11.56;100.00
60832;BME280;46665;51.558;-0.448;2022-10-31T09:05:08;100939.22;;;11.63;100.00
60832;BME280;46665;51.558;-0.448;2022-10-31T09:07:55;100949.78;;;11.69;100.00
60832;BME280;46665;51.558;-0.448;2022-10-31T09:10:40;100936.66;;;11.77;100.00
60832;BME280;46665;51.558;-0.448;2022-10-31T09:13:25;100935.28;;;11.79;100.00
60832;BME280;46665;51.558;-0.448;2022-10-31T09:16:09;100933.91;;;11.87;100.00
60832;BME280;46665;51.558;-0.448;2022-10-31T09:18:53;100928.38;;;11.97;100.00
60832;BME280;46665;51.558;-0.448;2022-10-31T09:21:37;100922.34;;;12.05;100.00
60832;BME280;46665;51.558;-0.448;2022-10-31T09:24:21;100927.72;;;12.16;100.00
60832;BME280;46665;51.558;-0.448;2022-10-31T09:27:05;100921.66;;;12.24;100.00
60832;BME280;46665;51.558;-0.448;2022-10-31T09:29:49;100911.50;;;12.29;100.00
60832;BME280;46665;51.558;-0.448;2022-10-31T09:32:33;100906.59;;;12.31;100.00
60832;BME280;46665;51.558;-0.448;2022-10-31T09:35:17;100904.88;;;12.35;100.00
60832;BME280;46665;51.558;-0.448;2022-10-31T09:38:03;100904.03;;;12.40;100.00
60832;BME280;46665;51.558;-0.448;2022-10-31T09:44:14;100907.97;;;12.58;100.00
60832;BME280;46665;51.558;-0.448;2022-10-31T09:47:20;100901.31;;;12.69;100.00
60832;BME280;46665;51.558;-0.448;2022-10-31T09:50:20;100900.41;;;12.79;100.00
60832;BME280;46665;51.558;-0.448;2022-10-31T09:53:09;100894.56;;;12.86;100.00
60832;BME280;46665;51.558;-0.448;2022-10-31T09:55:54;100890.97;;;12.90;100.00
60832;BME280;46665;51.558;-0.448;2022-10-31T09:58:45;100888.50;;;12.94;100.00
60832;BME280;46665;51.558;-0.448;2022-10-31T10:01:42;100886.19;;;13.01;100.00
60832;BME280;46665;51.558;-0.448;2022-10-31T10:04:51;100887.72;;;13.12;100.00
60832;BME280;46665;51.558;-0.448;2022-10-31T10:20:18;100879.16;;;13.43;100.00
60832;BME280;46665;51.558;-0.448;2022-10-31T10:26:34;100879.75;;;13.59;100.00
60832;BME280;46665;51.558;-0.448;2022-10-31T10:29:49;100876.94;;;13.64;100.00
60832;BME280;46665;51.558;-0.448;2022-10-31T10:32:58;100886.03;;;13.78;100.00
60832;BME280;46665;51.558;-0.448;2022-10-31T10:35:47;100879.06;;;13.86;100.00
60832;BME280;46665;51.558;-0.448;2022-10-31T10:41:32;100860.44;;;13.88;100.00
60832;BME280;46665;51.558;-0.448;2022-10-31T10:44:16;100863.44;;;14.05;100.00
60832;BME280;46665;51.558;-0.448;2022-10-31T10:47:00;100864.97;;;14.12;100.00
60832;BME280;46665;51.558;-0.448;2022-10-31T10:55:52;100843.34;;;14.29;100.00
60832;BME280;46665;51.558;-0.448;2022-10-31T10:58:40;100838.91;;;14.33;100.00
60832;BME280;46665;51.558;-0.448;2022-10-31T11:01:26;100839.59;;;14.39;100.00
60832;BME280;46665;51.558;-0.448;2022-10-31T11:04:34;100833.22;;;14.43;100.00
60832;BME280;46665;51.558;-0.448;2022-10-31T11:07:18;100831.41;;;14.39;100.00
60832;BME280;46665;51.558;-0.448;2022-10-31T11:10:04;100839.56;;;14.25;100.00
60832;BME280;46665;51.558;-0.448;2022-10-31T11:16:00;100829.13;;;14.27;100.00
60832;BME280;46665;51.558;-0.448;2022-10-31T11:18:46;100814.94;;;14.25;100.00
60832;BME280;46665;51.558;-0.448;2022-10-31T11:21:30;100796.91;;;14.24;100.00
60832;BME280;46665;51.558;-0.448;2022-10-31T11:24:23;100797.91;;;14.28;100.00
60832;BME280;46665;51.558;-0.448;2022-10-31T11:27:36;100808.19;;;14.36;100.00
60832;BME280;46665;51.558;-0.448;2022-10-31T11:30:19;100812.31;;;14.34;100.00
60832;BME280;46665;51.558;-0.448;2022-10-31T11:33:03;100803.78;;;14.35;100.00
60832;BME280;46665;51.558;-0.448;2022-10-31T11:35:48;100804.22;;;14.42;100.00
60832;BME280;46665;51.558;-0.448;2022-10-31T11:38:40;100798.03;;;14.50;100.00
60832;BME280;46665;51.558;-0.448;2022-10-31T11:41:34;100787.50;;;14.58;100.00
60832;BME280;46665;51.558;-0.448;2022-10-31T11:44:25;100789.63;;;14.61;100.00
60832;BME280;46665;51.558;-0.448;2022-10-31T11:47:14;100775.47;;;14.59;100.00
60832;BME280;46665;51.558;-0.448;2022-10-31T11:50:02;100757.59;;;14.61;100.00
60832;BME280;46665;51.558;-0.448;2022-10-31T11:52:53;100756.19;;;14.64;100.00
60832;BME280;46665;51.558;-0.448;2022-10-31T11:55:38;100760.13;;;14.71;100.00
60832;BME280;46665;51.558;-0.448;2022-10-31T11:58:25;100756.97;;;14.78;100.00
60832;BME280;46665;51.558;-0.448;2022-10-31T12:01:25;100750.69;;;14.78;100.00
60832;BME280;46665;51.558;-0.448;2022-10-31T12:04:10;100737.28;;;14.90;100.00
60832;BME280;46665;51.558;-0.448;2022-10-31T12:06:55;100727.75;;;14.87;100.00
60832;BME280;46665;51.558;-0.448;2022-10-31T12:09:39;100722.78;;;14.89;100.00
60832;BME280;46665;51.558;-0.448;2022-10-31T12:15:32;100705.09;;;14.95;100.00
60832;BME280;46665;51.558;-0.448;2022-10-31T12:18:28;100712.50;;;14.95;100.00
60832;BME280;46665;51.558;-0.448;2022-10-31T12:30:19;100683.97;;;14.96;100.00
60832;BME280;46665;51.558;-0.448;2022-10-31T12:36:14;100673.47;;;14.89;100.00
60832;BME280;46665;51.558;-0.448;2022-10-31T12:42:12;100655.88;;;14.90;100.00
60832;BME280;46665;51.558;-0.448;2022-10-31T12:45:13;100648.47;;;14.91;100.00
60832;BME280;46665;51.558;-0.448;2022-10-31T12:48:05;100649.06;;;15.02;100.00
60832;BME280;46665;51.558;-0.448;2022-10-31T12:51:15;100637.34;;;15.10;100.00
60832;BME280;46665;51.558;-0.448;2022-10-31T13:00:04;100627.78;;;15.52;95.56
60832;BME280;46665;51.558;-0.448;2022-10-31T13:02:53;100613.56;;;15.50;98.21
60832;BME280;46665;51.558;-0.448;2022-10-31T13:05:41;100611.63;;;15.51;96.64
60832;BME280;46665;51.558;-0.448;2022-10-31T13:08:49;100607.72;;;15.43;94.27
60832;BME280;46665;51.558;-0.448;2022-10-31T13:11:39;100590.97;;;15.45;94.89
60832;BME280;46665;51.558;-0.448;2022-10-31T13:14:38;100582.91;;;15.48;94.54
60832;BME280;46665;51.558;-0.448;2022-10-31T13:17:36;100565.03;;;15.59;93.40
60832;BME280;46665;51.558;-0.448;2022-10-31T13:20:41;100558.25;;;15.57;96.13
60832;BME280;46665;51.558;-0.448;2022-10-31T13:23:31;100554.19;;;15.54;97.09
60832;BME280;46665;51.558;-0.448;2022-10-31T13:26:38;100536.59;;;15.47;96.91
60832;BME280;46665;51.558;-0.448;2022-10-31T13:29:33;100533.53;;;15.39;97.84
60832;BME280;46665;51.558;-0.448;2022-10-31T13:32:19;100525.44;;;15.34;98.24
60832;BME280;46665;51.558;-0.448;2022-10-31T13:35:05;100513.63;;;15.25;96.63
60832;BME280;46665;51.558;-0.448;2022-10-31T13:38:01;100510.88;;;15.25;97.51
60832;BME280;46665;51.558;-0.448;2022-10-31T13:44:02;100493.94;;;15.23;98.68
60832;BME280;46665;51.558;-0.448;2022-10-31T13:46:50;100497.97;;;15.26;99.42
60832;BME280;46665;51.558;-0.448;2022-10-31T13:52:24;100481.66;;;15.21;98.34
60832;BME280;46665;51.558;-0.448;2022-10-31T13:55:35;100476.47;;;15.19;98.50
60832;BME280;46665;51.558;-0.448;2022-10-31T13:58:26;100479.06;;;15.15;98.62
60832;BME280;46665;51.558;-0.448;2022-10-31T14:01:20;100458.88;;;15.11;99.00
60832;BME280;46665;51.558;-0.448;2022-10-31T14:04:38;100450.00;;;15.06;99.46
60832;BME280;46665;51.558;-0.448;2022-10-31T14:07:29;100445.78;;;15.00;99.92
60832;BME280;46665;51.558;-0.448;2022-10-31T14:10:47;100434.84;;;15.00;100.00
60832;BME280;46665;51.558;-0.448;2022-10-31T14:13:35;100429.50;;;14.94;100.00
60832;BME280;46665;51.558;-0.448;2022-10-31T14:16:27;100421.06;;;14.91;100.00
60832;BME280;46665;51.558;-0.448;2022-10-31T14:19:17;100419.47;;;14.90;100.00
60832;BME280;46665;51.558;-0.448;2022-10-31T14:22:02;100412.69;;;14.87;100.00
60832;BME280;46665;51.558;-0.448;2022-10-31T14:24:46;100423.50;;;14.92;100.00
60832;BME280;46665;51.558;-0.448;2022-10-31T14:27:33;100411.56;;;14.88;100.00
60832;BME280;46665;51.558;-0.448;2022-10-31T14:30:20;100402.03;;;14.86;100.00
60832;BME280;46665;51.558;-0.448;2022-10-31T14:33:17;100401.06;;;14.82;100.00
60832;BME280;46665;51.558;-0.448;2022-10-31T14:36:17;100374.13;;;14.75;100.00
60832;BME280;46665;51.558;-0.448;2022-10-31T14:39:21;100388.63;;;14.76;100.00
60832;BME280;46665;51.558;-0.448;2022-10-31T14:51:12;100352.63;;;14.60;99.55
60832;BME280;46665;51.558;-0.448;2022-10-31T14:53:59;100343.44;;;14.56;98.80
60832;BME280;46665;51.558;-0.448;2022-10-31T14:56:53;100348.91;;;14.56;99.65
60832;BME280;46665;51.558;-0.448;2022-10-31T14:59:41;100340.00;;;14.50;99.57
60832;BME280;46665;51.558;-0.448;2022-10-31T15:02:45;100338.38;;;14.49;100.00
60832;BME280;46665;51.558;-0.448;2022-10-31T15:05:34;100317.94;;;14.46;100.00
60832;BME280;46665;51.558;-0.448;2022-10-31T15:08:40;100307.59;;;14.43;100.00
60832;BME280;46665;51.558;-0.448;2022-10-31T15:11:27;100302.13;;;14.43;100.00
60832;BME280;46665;51.558;-0.448;2022-10-31T15:14:22;100289.69;;;14.37;100.00
60832;BME280;46665;51.558;-0.448;2022-10-31T15:17:11;100272.78;;;14.35;100.00
60832;BME280;46665;51.558;-0.448;2022-10-31T15:19:56;100273.91;;;14.34;100.00
60832;BME280;46665;51.558;-0.448;2022-10-31T15:22:41;100274.22;;;14.32;100.00
60832;BME280;46665;51.558;-0.448;2022-10-31T15:25:30;100260.84;;;14.31;100.00
60832;BME280;46665;51.558;-0.448;2022-10-31T15:28:24;100255.69;;;14.29;100.00
60832;BME280;46665;51.558;-0.448;2022-10-31T15:31:17;100242.16;;;14.24;100.00
60832;BME280;46665;51.558;-0.448;2022-10-31T15:37:17;100240.84;;;14.22;100.00
60832;BME280;46665;51.558;-0.448;2022-10-31T15:40:17;100227.00;;;14.18;100.00
60832;BME280;46665;51.558;-0.448;2022-10-31T15:43:04;100226.16;;;14.18;100.00
60832;BME280;46665;51.558;-0.448;2022-10-31T15:45:49;100229.53;;;14.15;100.00
60832;BME280;46665;51.558;-0.448;2022-10-31T15:48:33;100210.72;;;14.13;100.00
60832;BME280;46665;51.558;-0.448;2022-10-31T15:51:26;100206.69;;;14.11;100.00
60832;BME280;46665;51.558;-0.448;2022-10-31T15:54:12;100200.38;;;14.10;100.00
60832;BME280;46665;51.558;-0.448;2022-10-31T15:56:57;100196.84;;;14.09;100.00
60832;BME280;46665;51.558;-0.448;2022-10-31T15:59:45;100180.78;;;14.08;100.00
60832;BME280;46665;51.558;-0.448;2022-10-31T16:02:30;100166.91;;;14.04;100.00
60832;BME280;46665;51.558;-0.448;2022-10-31T16:05:16;100159.03;;;14.03;100.00